sensor_id;sensor_type;location;lat;lon;timestamp;pressure;altitude;pressure_sealevel;temperature;humidity
72636;BME280;60679;48.888;15.544;2024-03-29T00:00:42;95157.34;;;2.63;72.72
72636;BME280;60679;48.888;15.544;2024-03-29T00:03:09;95151.81;;;2.71;72.87
72636;BME280;60679;48.888;15.544;2024-03-29T00:05:35;95145.88;;;2.69;72.60
72636;BME280;60679;48.888;15.544;2024-03-29T00:08:01;95146.69;;;2.63;72.41
72636;BME280;60679;48.888;15.544;2024-03-29T00:10:26;95154.47;;;2.65;72.77
72636;BME280;60679;48.888;15.544;2024-03-29T00:12:51;95148.94;;;2.53;72.44
72636;BME280;60679;48.888;15.544;2024-03-29T00:15:17;95154.59;;;2.30;72.25
72636;BME280;60679;48.888;15.544;2024-03-29T00:17:42;95159.88;;;2.17;72.55
72636;BME280;60679;48.888;15.544;2024-03-29T00:20:08;95159.13;;;1.83;72.01
72636;BME280;60679;48.888;15.544;2024-03-29T00:22:34;95158.53;;;1.53;72.44
72636;BME280;60679;48.888;15.544;2024-03-29T00:25:00;95166.50;;;1.53;72.68
72636;BME280;60679;48.888;15.544;2024-03-29T00:27:25;95155.25;;;1.51;72.84
72636;BME280;60679;48.888;15.544;2024-03-29T00:29:53;95155.25;;;1.51;72.90
72636;BME280;60679;48.888;15.544;2024-03-29T00:32:20;95160.34;;;1.46;72.71
72636;BME280;60679;48.888;15.544;2024-03-29T00:34:45;95161.38;;;1.17;72.44
72636;BME280;60679;48.888;15.544;2024-03-29T00:37:14;95159.69;;;1.09;72.50
72636;BME280;60679;48.888;15.544;2024-03-29T00:39:39;95156.47;;;0.93;72.57
72636;BME280;60679;48.888;15.544;2024-03-29T00:42:04;95166.66;;;0.89;72.73
72636;BME280;60679;48.888;15.544;2024-03-29T00:44:34;95160.03;;;0.79;72.73
72636;BME280;60679;48.888;15.544;2024-03-29T00:47:01;95163.69;;;0.78;72.93
72636;BME280;60679;48.888;15.544;2024-03-29T00:49:26;95155.28;;;0.74;72.50
72636;BME280;60679;48.888;15.544;2024-03-29T00:51:51;95164.31;;;0.80;73.04
72636;BME280;60679;48.888;15.544;2024-03-29T00:54:18;95166.44;;;0.84;72.96
72636;BME280;60679;48.888;15.544;2024-03-29T00:56:44;95171.75;;;0.84;72.71
72636;BME280;60679;48.888;15.544;2024-03-29T00:59:09;95169.56;;;0.94;72.96
72636;BME280;60679;48.888;15.544;2024-03-29T01:01:35;95181.47;;;0.98;73.11
72636;BME280;60679;48.888;15.544;2024-03-29T01:04:00;95182.56;;;1.10;73.23
72636;BME280;60679;48.888;15.544;2024-03-29T01:06:25;95184.59;;;1.08;72.75
72636;BME280;60679;48.888;15.544;2024-03-29T01:08:51;95185.50;;;0.94;72.87
72636;BME280;60679;48.888;15.544;2024-03-29T01:11:16;95194.56;;;0.79;72.95
72636;BME280;60679;48.888;15.544;2024-03-29T01:13:42;95184.56;;;0.81;73.45
72636;BME280;60679;48.888;15.544;2024-03-29T01:16:07;95193.84;;;0.91;73.27
72636;BME280;60679;48.888;15.544;2024-03-29T01:18:33;95191.78;;;0.87;72.99
72636;BME280;60679;48.888;15.544;2024-03-29T01:20:59;95191.34;;;0.83;73.29
72636;BME280;60679;48.888;15.544;2024-03-29T01:23:24;95203.44;;;0.65;72.62
72636;BME280;60679;48.888;15.544;2024-03-29T01:25:52;95211.06;;;0.53;73.10
72636;BME280;60679;48.888;15.544;2024-03-29T01:28:18;95213.59;;;0.61;73.65
72636;BME280;60679;48.888;15.544;2024-03-29T01:30:43;95202.59;;;0.64;73.26
72636;BME280;60679;48.888;15.544;2024-03-29T01:33:09;95189.94;;;0.66;73.50
72636;BME280;60679;48.888;15.544;2024-03-29T01:35:34;95184.47;;;0.68;73.17
72636;BME280;60679;48.888;15.544;2024-03-29T01:38:02;95182.41;;;0.48;72.78
72636;BME280;60679;48.888;15.544;2024-03-29T01:40:28;95194.97;;;0.40;73.15
72636;BME280;60679;48.888;15.544;2024-03-29T01:42:54;95201.59;;;0.29;72.97
72636;BME280;60679;48.888;15.544;2024-03-29T01:45:19;95204.84;;;0.25;73.44
72636;BME280;60679;48.888;15.544;2024-03-29T01:47:46;95204.72;;;0.33;73.42
72636;BME280;60679;48.888;15.544;2024-03-29T01:50:12;95204.47;;;0.28;73.24
72636;BME280;60679;48.888;15.544;2024-03-29T01:52:38;95206.91;;;0.29;73.33
72636;BME280;60679;48.888;15.544;2024-03-29T01:55:07;95196.28;;;0.29;73.38
72636;BME280;60679;48.888;15.544;2024-03-29T01:57:33;95208.75;;;0.29;73.58
72636;BME280;60679;48.888;15.544;2024-03-29T01:59:58;95205.72;;;0.32;73.27
72636;BME280;60679;48.888;15.544;2024-03-29T02:02:24;95218.25;;;0.38;73.53
72636;BME280;60679;48.888;15.544;2024-03-29T02:04:50;95222.47;;;0.32;73.08
72636;BME280;60679;48.888;15.544;2024-03-29T02:07:16;95227.91;;;0.10;72.87
72636;BME280;60679;48.888;15.544;2024-03-29T02:09:41;95228.22;;;0.00;73.18
72636;BME280;60679;48.888;15.544;2024-03-29T02:12:07;95233.84;;;0.12;73.99
72636;BME280;60679;48.888;15.544;2024-03-29T02:14:32;95211.25;;;0.51;74.11
72636;BME280;60679;48.888;15.544;2024-03-29T02:16:58;95199.78;;;0.93;73.95
72636;BME280;60679;48.888;15.544;2024-03-29T02:19:23;95187.88;;;1.10;73.57
72636;BME280;60679;48.888;15.544;2024-03-29T02:21:50;95196.91;;;0.88;72.59
72636;BME280;60679;48.888;15.544;2024-03-29T02:24:17;95193.47;;;0.52;72.99
72636;BME280;60679;48.888;15.544;2024-03-29T02:26:43;95187.47;;;0.43;73.43
72636;BME280;60679;48.888;15.544;2024-03-29T02:29:10;95184.56;;;0.38;73.33
72636;BME280;60679;48.888;15.544;2024-03-29T02:31:36;95179.75;;;0.27;73.32
72636;BME280;60679;48.888;15.544;2024-03-29T02:34:01;95181.41;;;0.49;74.07
72636;BME280;60679;48.888;15.544;2024-03-29T02:36:27;95182.41;;;0.91;73.79
72636;BME280;60679;48.888;15.544;2024-03-29T02:38:52;95185.34;;;0.96;73.18
72636;BME280;60679;48.888;15.544;2024-03-29T02:41:18;95187.53;;;0.92;73.17
72636;BME280;60679;48.888;15.544;2024-03-29T02:43:43;95196.06;;;0.88;73.17
72636;BME280;60679;48.888;15.544;2024-03-29T02:46:09;95215.56;;;0.95;73.76
72636;BME280;60679;48.888;15.544;2024-03-29T02:48:34;95215.66;;;1.29;73.70
72636;BME280;60679;48.888;15.544;2024-03-29T02:51:00;95216.50;;;1.36;73.58
72636;BME280;60679;48.888;15.544;2024-03-29T02:53:25;95211.53;;;1.54;73.97
72636;BME280;60679;48.888;15.544;2024-03-29T02:55:50;95218.78;;;1.39;72.95
72636;BME280;60679;48.888;15.544;2024-03-29T02:58:16;95225.75;;;1.12;73.14
72636;BME280;60679;48.888;15.544;2024-03-29T03:00:41;95232.19;;;1.03;73.28
72636;BME280;60679;48.888;15.544;2024-03-29T03:03:07;95237.78;;;0.87;73.20
72636;BME280;60679;48.888;15.544;2024-03-29T03:05:32;95238.19;;;0.91;73.56
72636;BME280;60679;48.888;15.544;2024-03-29T03:07:58;95237.69;;;1.02;73.67
72636;BME280;60679;48.888;15.544;2024-03-29T03:10:46;95232.19;;;1.03;73.36
72636;BME280;60679;48.888;15.544;2024-03-29T03:13:28;95247.31;;;1.03;73.33
72636;BME280;60679;48.888;15.544;2024-03-29T03:15:54;95246.13;;;1.05;73.61
72636;BME280;60679;48.888;15.544;2024-03-29T03:18:20;95250.41;;;1.28;73.52
72636;BME280;60679;48.888;15.544;2024-03-29T03:20:55;95250.06;;;1.37;73.37
72636;BME280;60679;48.888;15.544;2024-03-29T03:23:23;95247.88;;;1.41;73.44
72636;BME280;60679;48.888;15.544;2024-03-29T03:26:03;95254.31;;;1.32;73.12
72636;BME280;60679;48.888;15.544;2024-03-29T03:28:29;95261.09;;;1.13;72.99
72636;BME280;60679;48.888;15.544;2024-03-29T03:30:55;95262.28;;;0.68;72.97
72636;BME280;60679;48.888;15.544;2024-03-29T03:33:21;95271.72;;;0.35;72.52
72636;BME280;60679;48.888;15.544;2024-03-29T03:35:47;95272.28;;;0.01;72.97
72636;BME280;60679;48.888;15.544;2024-03-29T03:38:12;95280.50;;;0.06;73.52
72636;BME280;60679;48.888;15.544;2024-03-29T03:40:38;95268.28;;;0.20;74.09
72636;BME280;60679;48.888;15.544;2024-03-29T03:43:05;95261.94;;;0.21;73.38
72636;BME280;60679;48.888;15.544;2024-03-29T03:45:38;95271.19;;;0.61;74.09
72636;BME280;60679;48.888;15.544;2024-03-29T03:48:05;95259.47;;;0.91;74.01
72636;BME280;60679;48.888;15.544;2024-03-29T03:50:31;95256.09;;;1.46;74.06
72636;BME280;60679;48.888;15.544;2024-03-29T03:52:57;95268.94;;;1.70;73.24
72636;BME280;60679;48.888;15.544;2024-03-29T03:55:23;95278.81;;;1.27;72.86
72636;BME280;60679;48.888;15.544;2024-03-29T03:57:52;95276.94;;;1.00;73.03
72636;BME280;60679;48.888;15.544;2024-03-29T04:00:18;95269.66;;;0.87;73.28
72636;BME280;60679;48.888;15.544;2024-03-29T04:02:49;95275.41;;;0.70;73.20
72636;BME280;60679;48.888;15.544;2024-03-29T04:05:18;95259.56;;;0.62;73.19
72636;BME280;60679;48.888;15.544;2024-03-29T04:07:44;95242.28;;;0.51;73.17
72636;BME280;60679;48.888;15.544;2024-03-29T04:10:13;95240.59;;;0.29;73.07
72636;BME280;60679;48.888;15.544;2024-03-29T04:12:39;95250.25;;;0.00;72.88
72636;BME280;60679;48.888;15.544;2024-03-29T04:15:05;95247.16;;;-0.18;73.10
72636;BME280;60679;48.888;15.544;2024-03-29T04:17:31;95250.88;;;-0.27;73.48
72636;BME280;60679;48.888;15.544;2024-03-29T04:20:00;95244.75;;;-0.27;73.47
72636;BME280;60679;48.888;15.544;2024-03-29T04:22:27;95239.81;;;-0.30;73.40
72636;BME280;60679;48.888;15.544;2024-03-29T04:24:53;95244.28;;;-0.31;73.50
72636;BME280;60679;48.888;15.544;2024-03-29T04:27:18;95256.56;;;-0.15;73.64
72636;BME280;60679;48.888;15.544;2024-03-29T04:29:44;95259.13;;;-0.22;73.45
72636;BME280;60679;48.888;15.544;2024-03-29T04:32:09;95256.41;;;-0.28;73.37
72636;BME280;60679;48.888;15.544;2024-03-29T04:34:35;95268.34;;;-0.32;73.42
72636;BME280;60679;48.888;15.544;2024-03-29T04:37:00;95261.38;;;-0.33;73.56
72636;BME280;60679;48.888;15.544;2024-03-29T04:39:27;95259.56;;;-0.33;73.52
72636;BME280;60679;48.888;15.544;2024-03-29T04:41:52;95259.56;;;-0.33;73.46
72636;BME280;60679;48.888;15.544;2024-03-29T04:44:25;95256.09;;;-0.33;73.75
72636;BME280;60679;48.888;15.544;2024-03-29T04:46:51;95247.59;;;-0.29;73.39
72636;BME280;60679;48.888;15.544;2024-03-29T04:49:18;95251.16;;;-0.22;73.33
72636;BME280;60679;48.888;15.544;2024-03-29T04:51:48;95243.41;;;-0.23;73.21
72636;BME280;60679;48.888;15.544;2024-03-29T04:54:14;95238.53;;;-0.20;73.26
72636;BME280;60679;48.888;15.544;2024-03-29T04:56:41;95237.69;;;-0.06;73.19
72636;BME280;60679;48.888;15.544;2024-03-29T04:59:06;95240.09;;;-0.11;72.90
72636;BME280;60679;48.888;15.544;2024-03-29T05:01:32;95241.84;;;-0.18;72.73
72636;BME280;60679;48.888;15.544;2024-03-29T05:04:00;95227.13;;;-0.20;73.04
72636;BME280;60679;48.888;15.544;2024-03-29T05:06:26;95230.56;;;-0.20;72.69
72636;BME280;60679;48.888;15.544;2024-03-29T05:08:51;95240.34;;;-0.06;72.99
72636;BME280;60679;48.888;15.544;2024-03-29T05:11:17;95238.63;;;0.02;72.69
72636;BME280;60679;48.888;15.544;2024-03-29T05:13:44;95248.69;;;0.06;72.69
72636;BME280;60679;48.888;15.544;2024-03-29T05:16:10;95251.94;;;0.23;72.74
72636;BME280;60679;48.888;15.544;2024-03-29T05:18:35;95263.47;;;0.30;72.42
72636;BME280;60679;48.888;15.544;2024-03-29T05:21:01;95258.34;;;0.28;72.22
72636;BME280;60679;48.888;15.544;2024-03-29T05:23:26;95260.56;;;0.25;71.87
72636;BME280;60679;48.888;15.544;2024-03-29T05:25:52;95260.72;;;0.38;72.07
72636;BME280;60679;48.888;15.544;2024-03-29T05:28:17;95270.09;;;0.70;72.09
72636;BME280;60679;48.888;15.544;2024-03-29T05:30:43;95271.03;;;0.83;71.71
72636;BME280;60679;48.888;15.544;2024-03-29T05:33:08;95283.94;;;0.86;71.50
72636;BME280;60679;48.888;15.544;2024-03-29T05:35:34;95274.59;;;1.11;71.69
72636;BME280;60679;48.888;15.544;2024-03-29T05:37:59;95269.69;;;1.36;71.31
72636;BME280;60679;48.888;15.544;2024-03-29T05:40:25;95269.47;;;1.59;71.00
72636;BME280;60679;48.888;15.544;2024-03-29T05:42:52;95267.16;;;1.77;70.82
72636;BME280;60679;48.888;15.544;2024-03-29T05:45:29;95272.78;;;1.95;70.56
72636;BME280;60679;48.888;15.544;2024-03-29T05:47:56;95276.78;;;2.12;70.29
72636;BME280;60679;48.888;15.544;2024-03-29T05:50:23;95284.38;;;2.15;69.92
72636;BME280;60679;48.888;15.544;2024-03-29T05:52:49;95281.16;;;2.26;70.24
72636;BME280;60679;48.888;15.544;2024-03-29T05:55:14;95279.22;;;2.42;70.31
72636;BME280;60679;48.888;15.544;2024-03-29T05:57:40;95271.47;;;2.60;69.87
72636;BME280;60679;48.888;15.544;2024-03-29T06:00:11;95274.03;;;2.81;69.98
72636;BME280;60679;48.888;15.544;2024-03-29T06:02:37;95261.97;;;2.98;69.84
72636;BME280;60679;48.888;15.544;2024-03-29T06:05:03;95252.19;;;3.18;69.83
72636;BME280;60679;48.888;15.544;2024-03-29T06:07:30;95251.56;;;3.42;69.63
72636;BME280;60679;48.888;15.544;2024-03-29T06:09:58;95249.72;;;3.69;69.64
72636;BME280;60679;48.888;15.544;2024-03-29T06:12:24;95250.91;;;3.93;69.35
72636;BME280;60679;48.888;15.544;2024-03-29T06:14:49;95249.63;;;4.15;69.06
72636;BME280;60679;48.888;15.544;2024-03-29T06:17:33;95245.47;;;4.39;69.13
72636;BME280;60679;48.888;15.544;2024-03-29T06:20:01;95255.44;;;4.63;69.04
72636;BME280;60679;48.888;15.544;2024-03-29T06:22:28;95267.28;;;4.87;68.66
72636;BME280;60679;48.888;15.544;2024-03-29T06:24:56;95262.44;;;5.08;68.58
72636;BME280;60679;48.888;15.544;2024-03-29T06:27:24;95264.94;;;5.35;68.31
72636;BME280;60679;48.888;15.544;2024-03-29T06:29:50;95267.06;;;5.57;68.14
72636;BME280;60679;48.888;15.544;2024-03-29T06:32:15;95252.25;;;5.79;67.88
72636;BME280;60679;48.888;15.544;2024-03-29T06:34:44;95242.44;;;5.98;67.60
72636;BME280;60679;48.888;15.544;2024-03-29T06:37:10;95248.41;;;6.18;67.61
72636;BME280;60679;48.888;15.544;2024-03-29T06:39:35;95241.81;;;6.39;67.08
72636;BME280;60679;48.888;15.544;2024-03-29T06:42:01;95236.81;;;6.61;67.04
72636;BME280;60679;48.888;15.544;2024-03-29T06:44:27;95237.44;;;6.92;66.77
72636;BME280;60679;48.888;15.544;2024-03-29T06:46:52;95235.81;;;7.21;66.31
72636;BME280;60679;48.888;15.544;2024-03-29T06:49:18;95240.34;;;7.50;66.31
72636;BME280;60679;48.888;15.544;2024-03-29T06:51:43;95239.44;;;7.68;66.19
72636;BME280;60679;48.888;15.544;2024-03-29T06:54:11;95233.75;;;7.88;65.78
72636;BME280;60679;48.888;15.544;2024-03-29T06:56:37;95238.47;;;8.16;65.46
72636;BME280;60679;48.888;15.544;2024-03-29T06:59:03;95238.09;;;8.47;65.33
72636;BME280;60679;48.888;15.544;2024-03-29T07:01:28;95231.59;;;8.83;64.79
72636;BME280;60679;48.888;15.544;2024-03-29T07:03:54;95210.47;;;9.31;64.51
72636;BME280;60679;48.888;15.544;2024-03-29T07:06:19;95207.38;;;11.47;61.42
72636;BME280;60679;48.888;15.544;2024-03-29T07:08:45;95195.72;;;14.37;56.21
72636;BME280;60679;48.888;15.544;2024-03-29T07:11:10;95194.19;;;15.05;54.86
72636;BME280;60679;48.888;15.544;2024-03-29T07:13:36;95186.38;;;16.64;51.76
72636;BME280;60679;48.888;15.544;2024-03-29T07:16:02;95190.94;;;18.01;49.57
72636;BME280;60679;48.888;15.544;2024-03-29T07:18:28;95192.59;;;18.34;49.26
72636;BME280;60679;48.888;15.544;2024-03-29T07:20:53;95199.69;;;18.67;48.55
72636;BME280;60679;48.888;15.544;2024-03-29T07:23:19;95196.06;;;18.85;48.10
72636;BME280;60679;48.888;15.544;2024-03-29T07:25:45;95189.38;;;19.87;47.01
72636;BME280;60679;48.888;15.544;2024-03-29T07:28:21;95184.16;;;20.35;45.99
72636;BME280;60679;48.888;15.544;2024-03-29T07:30:46;95182.13;;;20.71;45.40
72636;BME280;60679;48.888;15.544;2024-03-29T07:33:12;95169.00;;;20.59;44.54
72636;BME280;60679;48.888;15.544;2024-03-29T07:35:40;95162.91;;;21.02;44.65
72636;BME280;60679;48.888;15.544;2024-03-29T07:38:06;95142.19;;;21.18;44.32
72636;BME280;60679;48.888;15.544;2024-03-29T07:40:32;95137.28;;;21.71;43.56
72636;BME280;60679;48.888;15.544;2024-03-29T07:42:57;95128.13;;;22.10;42.73
72636;BME280;60679;48.888;15.544;2024-03-29T07:45:26;95121.31;;;22.25;42.65
72636;BME280;60679;48.888;15.544;2024-03-29T07:47:52;95110.44;;;22.54;42.09
72636;BME280;60679;48.888;15.544;2024-03-29T07:50:19;95112.34;;;22.71;41.79
72636;BME280;60679;48.888;15.544;2024-03-29T07:52:45;95122.41;;;22.50;41.95
72636;BME280;60679;48.888;15.544;2024-03-29T07:55:11;95125.09;;;22.84;41.40
72636;BME280;60679;48.888;15.544;2024-03-29T07:57:36;95116.75;;;23.47;41.51
72636;BME280;60679;48.888;15.544;2024-03-29T08:00:02;95117.81;;;23.55;41.53
72636;BME280;60679;48.888;15.544;2024-03-29T08:02:28;95119.59;;;23.80;41.33
72636;BME280;60679;48.888;15.544;2024-03-29T08:04:53;95121.34;;;24.05;40.57
72636;BME280;60679;48.888;15.544;2024-03-29T08:07:19;95127.56;;;23.82;40.79
72636;BME280;60679;48.888;15.544;2024-03-29T08:09:44;95134.91;;;23.98;40.50
72636;BME280;60679;48.888;15.544;2024-03-29T08:12:09;95140.34;;;24.28;40.31
72636;BME280;60679;48.888;15.544;2024-03-29T08:14:35;95149.06;;;23.68;40.33
72636;BME280;60679;48.888;15.544;2024-03-29T08:17:01;95152.22;;;22.05;42.49
72636;BME280;60679;48.888;15.544;2024-03-29T08:19:30;95162.41;;;22.13;41.94
72636;BME280;60679;48.888;15.544;2024-03-29T08:21:55;95157.94;;;23.44;41.06
72636;BME280;60679;48.888;15.544;2024-03-29T08:24:21;95145.88;;;24.28;39.50
72636;BME280;60679;48.888;15.544;2024-03-29T08:26:47;95148.59;;;24.16;39.06
72636;BME280;60679;48.888;15.544;2024-03-29T08:29:12;95158.50;;;23.20;40.37
72636;BME280;60679;48.888;15.544;2024-03-29T08:31:37;95157.69;;;23.58;39.73
72636;BME280;60679;48.888;15.544;2024-03-29T08:34:03;95149.91;;;24.30;39.29
72636;BME280;60679;48.888;15.544;2024-03-29T08:36:28;95140.41;;;24.73;38.63
72636;BME280;60679;48.888;15.544;2024-03-29T08:38:54;95146.44;;;25.44;38.04
72636;BME280;60679;48.888;15.544;2024-03-29T08:41:20;95151.13;;;24.21;38.62
72636;BME280;60679;48.888;15.544;2024-03-29T08:43:45;95152.19;;;23.20;40.31
72636;BME280;60679;48.888;15.544;2024-03-29T08:46:11;95149.19;;;23.71;39.38
72636;BME280;60679;48.888;15.544;2024-03-29T08:48:37;95149.50;;;24.40;38.58
72636;BME280;60679;48.888;15.544;2024-03-29T08:51:05;95141.06;;;24.90;38.50
72636;BME280;60679;48.888;15.544;2024-03-29T08:53:30;95129.75;;;25.64;37.80
72636;BME280;60679;48.888;15.544;2024-03-29T08:55:55;95126.19;;;25.76;37.59
72636;BME280;60679;48.888;15.544;2024-03-29T08:58:21;95127.44;;;25.78;37.70
72636;BME280;60679;48.888;15.544;2024-03-29T09:00:55;95117.72;;;25.97;37.56
72636;BME280;60679;48.888;15.544;2024-03-29T09:03:22;95113.22;;;26.04;37.71
72636;BME280;60679;48.888;15.544;2024-03-29T09:05:48;95107.47;;;24.88;39.01
72636;BME280;60679;48.888;15.544;2024-03-29T09:08:13;95097.81;;;25.18;38.32
72636;BME280;60679;48.888;15.544;2024-03-29T09:10:39;95106.88;;;25.92;38.06
72636;BME280;60679;48.888;15.544;2024-03-29T09:13:12;95099.34;;;25.64;38.87
72636;BME280;60679;48.888;15.544;2024-03-29T09:15:38;95116.16;;;25.47;39.25
72636;BME280;60679;48.888;15.544;2024-03-29T09:18:03;95101.09;;;25.97;38.80
72636;BME280;60679;48.888;15.544;2024-03-29T09:20:39;95095.25;;;26.38;38.30
72636;BME280;60679;48.888;15.544;2024-03-29T09:23:04;95080.59;;;26.37;38.10
72636;BME280;60679;48.888;15.544;2024-03-29T09:25:30;95079.06;;;26.40;38.56
72636;BME280;60679;48.888;15.544;2024-03-29T09:27:57;95067.13;;;26.79;38.32
72636;BME280;60679;48.888;15.544;2024-03-29T09:30:22;95102.91;;;26.29;38.31
72636;BME280;60679;48.888;15.544;2024-03-29T09:32:50;95089.88;;;26.29;38.39
72636;BME280;60679;48.888;15.544;2024-03-29T09:35:17;95090.69;;;26.73;38.65
72636;BME280;60679;48.888;15.544;2024-03-29T09:37:43;95086.72;;;26.86;38.75
72636;BME280;60679;48.888;15.544;2024-03-29T09:40:10;95088.47;;;26.79;38.71
72636;BME280;60679;48.888;15.544;2024-03-29T09:42:38;95094.06;;;27.41;38.86
72636;BME280;60679;48.888;15.544;2024-03-29T09:45:05;95094.59;;;27.31;38.34
72636;BME280;60679;48.888;15.544;2024-03-29T09:47:31;95083.97;;;27.49;39.28
72636;BME280;60679;48.888;15.544;2024-03-29T09:50:03;95080.66;;;27.94;39.06
72636;BME280;60679;48.888;15.544;2024-03-29T09:52:32;95063.75;;;27.83;38.63
72636;BME280;60679;48.888;15.544;2024-03-29T09:55:00;95068.13;;;28.19;38.64
72636;BME280;60679;48.888;15.544;2024-03-29T09:57:25;95072.75;;;27.61;38.82
72636;BME280;60679;48.888;15.544;2024-03-29T09:59:55;95081.50;;;27.79;38.90
72636;BME280;60679;48.888;15.544;2024-03-29T10:02:21;95068.19;;;28.03;38.92
72636;BME280;60679;48.888;15.544;2024-03-29T10:04:51;95064.19;;;27.85;39.41
72636;BME280;60679;48.888;15.544;2024-03-29T10:07:17;95065.09;;;27.08;39.40
72636;BME280;60679;48.888;15.544;2024-03-29T10:09:43;95067.31;;;26.86;39.92
72636;BME280;60679;48.888;15.544;2024-03-29T10:12:11;95071.16;;;26.82;39.88
72636;BME280;60679;48.888;15.544;2024-03-29T10:14:47;95075.44;;;26.79;39.39
72636;BME280;60679;48.888;15.544;2024-03-29T10:17:20;95074.16;;;26.77;39.94
72636;BME280;60679;48.888;15.544;2024-03-29T10:19:46;95082.91;;;26.35;40.29
72636;BME280;60679;48.888;15.544;2024-03-29T10:22:12;95068.16;;;26.31;40.39
72636;BME280;60679;48.888;15.544;2024-03-29T10:24:38;95064.53;;;26.15;40.48
72636;BME280;60679;48.888;15.544;2024-03-29T10:27:07;95067.50;;;25.83;40.65
72636;BME280;60679;48.888;15.544;2024-03-29T10:29:32;95065.34;;;25.40;41.37
72636;BME280;60679;48.888;15.544;2024-03-29T10:31:59;95061.53;;;25.68;41.17
72636;BME280;60679;48.888;15.544;2024-03-29T10:34:34;95072.00;;;25.63;40.69
72636;BME280;60679;48.888;15.544;2024-03-29T10:37:04;95061.31;;;25.01;41.46
72636;BME280;60679;48.888;15.544;2024-03-29T10:39:30;95054.63;;;24.45;41.85
72636;BME280;60679;48.888;15.544;2024-03-29T10:42:03;95066.16;;;24.47;41.77
72636;BME280;60679;48.888;15.544;2024-03-29T10:44:31;95063.94;;;24.85;41.36
72636;BME280;60679;48.888;15.544;2024-03-29T10:46:57;95056.75;;;24.60;41.14
72636;BME280;60679;48.888;15.544;2024-03-29T10:49:23;95049.59;;;23.73;42.35
72636;BME280;60679;48.888;15.544;2024-03-29T10:51:52;95051.13;;;23.41;42.42
72636;BME280;60679;48.888;15.544;2024-03-29T10:54:19;95032.00;;;23.07;42.77
72636;BME280;60679;48.888;15.544;2024-03-29T10:56:47;95027.00;;;23.29;42.62
72636;BME280;60679;48.888;15.544;2024-03-29T10:59:34;95030.97;;;23.90;42.32
72636;BME280;60679;48.888;15.544;2024-03-29T11:02:11;95014.78;;;24.22;41.40
72636;BME280;60679;48.888;15.544;2024-03-29T11:04:39;95011.78;;;23.94;41.79
72636;BME280;60679;48.888;15.544;2024-03-29T11:07:07;95003.34;;;23.08;42.85
72636;BME280;60679;48.888;15.544;2024-03-29T11:09:38;95000.19;;;22.97;43.16
72636;BME280;60679;48.888;15.544;2024-03-29T11:12:04;95003.84;;;23.01;42.84
72636;BME280;60679;48.888;15.544;2024-03-29T11:14:46;95008.53;;;22.80;43.10
72636;BME280;60679;48.888;15.544;2024-03-29T11:17:13;95007.44;;;22.55;43.11
72636;BME280;60679;48.888;15.544;2024-03-29T11:19:39;95015.25;;;22.44;42.95
72636;BME280;60679;48.888;15.544;2024-03-29T11:22:05;94998.53;;;22.58;42.52
72636;BME280;60679;48.888;15.544;2024-03-29T11:24:31;95012.72;;;23.36;41.93
72636;BME280;60679;48.888;15.544;2024-03-29T11:26:57;95004.16;;;23.08;42.05
72636;BME280;60679;48.888;15.544;2024-03-29T11:29:23;95001.63;;;22.02;43.17
72636;BME280;60679;48.888;15.544;2024-03-29T11:31:58;94996.47;;;21.83;43.47
72636;BME280;60679;48.888;15.544;2024-03-29T11:34:24;95002.28;;;21.99;43.71
72636;BME280;60679;48.888;15.544;2024-03-29T11:36:49;95007.13;;;23.24;41.82
72636;BME280;60679;48.888;15.544;2024-03-29T11:39:22;95001.44;;;22.99;41.69
72636;BME280;60679;48.888;15.544;2024-03-29T11:41:49;95004.38;;;23.24;41.91
72636;BME280;60679;48.888;15.544;2024-03-29T11:44:15;95004.66;;;23.02;41.79
72636;BME280;60679;48.888;15.544;2024-03-29T11:46:40;95005.84;;;23.21;41.49
72636;BME280;60679;48.888;15.544;2024-03-29T11:49:06;95015.34;;;22.74;41.82
72636;BME280;60679;48.888;15.544;2024-03-29T11:51:32;95007.91;;;22.19;41.91
72636;BME280;60679;48.888;15.544;2024-03-29T11:53:59;95007.19;;;22.86;41.36
72636;BME280;60679;48.888;15.544;2024-03-29T11:56:25;94997.25;;;22.64;41.81
72636;BME280;60679;48.888;15.544;2024-03-29T11:58:52;94996.66;;;22.41;41.82
72636;BME280;60679;48.888;15.544;2024-03-29T12:01:19;95003.25;;;23.87;40.35
72636;BME280;60679;48.888;15.544;2024-03-29T12:03:44;94989.47;;;25.25;39.01
72636;BME280;60679;48.888;15.544;2024-03-29T12:06:10;94999.81;;;26.20;38.14
72636;BME280;60679;48.888;15.544;2024-03-29T12:08:39;94990.53;;;26.87;37.83
72636;BME280;60679;48.888;15.544;2024-03-29T12:11:13;94987.31;;;27.01;37.42
72636;BME280;60679;48.888;15.544;2024-03-29T12:13:44;94988.22;;;26.30;38.05
72636;BME280;60679;48.888;15.544;2024-03-29T12:16:13;94982.81;;;26.49;38.20
72636;BME280;60679;48.888;15.544;2024-03-29T12:21:30;94990.72;;;27.44;36.54
72636;BME280;60679;48.888;15.544;2024-03-29T12:24:07;94994.06;;;27.19;36.86
72636;BME280;60679;48.888;15.544;2024-03-29T12:26:33;94992.97;;;27.74;36.51
72636;BME280;60679;48.888;15.544;2024-03-29T12:28:59;94988.69;;;27.26;36.54
72636;BME280;60679;48.888;15.544;2024-03-29T12:31:25;94983.47;;;26.89;37.14
72636;BME280;60679;48.888;15.544;2024-03-29T12:33:53;94984.13;;;26.12;37.29
72636;BME280;60679;48.888;15.544;2024-03-29T12:36:27;94985.75;;;25.45;38.11
72636;BME280;60679;48.888;15.544;2024-03-29T12:38:55;94980.56;;;27.17;36.56
72636;BME280;60679;48.888;15.544;2024-03-29T12:41:23;94982.59;;;27.90;35.55
72636;BME280;60679;48.888;15.544;2024-03-29T12:43:50;94981.63;;;28.40;35.43
72636;BME280;60679;48.888;15.544;2024-03-29T12:46:19;94983.91;;;28.53;34.84
72636;BME280;60679;48.888;15.544;2024-03-29T12:48:44;94991.53;;;27.45;36.18
72636;BME280;60679;48.888;15.544;2024-03-29T12:51:10;94987.03;;;26.90;36.90
72636;BME280;60679;48.888;15.544;2024-03-29T12:53:39;94987.94;;;27.98;36.15
72636;BME280;60679;48.888;15.544;2024-03-29T12:56:05;94991.00;;;27.74;35.68